Time;durP1;ratioP1;P1;durP2;ratioP2;P2;SDS_P1;SDS_P2;PMS_P1;PMS_P2;Temp;Humidity;BMP_temperature;BMP_pressure;BME280_temperature;BME280_humidity;BME280_pressure;Samples;Min_cycle;Max_cycle;Signal;HPM_P1;HPM_P2
2021/05/24 00:02:15;;;;;;;6.73;6.03;;;11.20;99.90;;;;;;5046096;28;20504;-81
2021/05/24 00:04:42;;;;;;;7.00;5.40;;;;;;;;;;5043032;28;20867;-82
2021/05/24 00:07:08;;;;;;;5.93;5.43;;;11.10;99.90;;;;;;5041309;28;20466;-82
2021/05/24 00:09:35;;;;;;;6.07;5.57;;;11.30;99.90;;;;;;5041896;28;20462;-82
2021/05/24 00:12:03;;;;;;;5.30;4.90;;;10.90;99.90;;;;;;5040181;28;20434;-82
2021/05/24 00:14:29;;;;;;;4.87;4.37;;;10.50;99.90;;;;;;5040015;28;20434;-81
2021/05/24 00:16:56;;;;;;;4.70;4.30;;;10.70;99.90;;;;;;5041410;28;20546;-79
2021/05/24 00:19:22;;;;;;;4.43;4.03;;;11.00;99.90;;;;;;5050161;28;20450;-80
2021/05/24 00:21:48;;;;;;;4.20;3.40;;;11.00;99.90;;;;;;5044230;28;20454;-80
2021/05/24 00:24:14;;;;;;;4.93;4.30;;;11.10;99.90;;;;;;5044190;28;20450;-82
2021/05/24 00:26:40;;;;;;;4.80;4.30;;;10.80;99.90;;;;;;5040160;28;20466;-80
2021/05/24 00:29:14;;;;;;;5.50;5.00;;;11.40;99.90;;;;;;5040071;28;20476;-81
2021/05/24 00:31:40;;;;;;;6.87;5.97;;;10.70;99.90;;;;;;5039478;28;20431;-81
2021/05/24 00:34:06;;;;;;;5.27;4.77;;;10.50;99.90;;;;;;5039081;28;20476;-81
2021/05/24 00:36:32;;;;;;;6.10;5.03;;;11.20;99.90;;;;;;5038260;28;20490;-81
2021/05/24 00:38:58;;;;;;;5.23;4.77;;;11.00;99.90;;;;;;5039222;28;20450;-80
2021/05/24 00:41:25;;;;;;;5.93;5.40;;;10.90;99.90;;;;;;5039293;28;20446;-80
2021/05/24 00:43:52;;;;;;;6.80;6.10;;;10.80;99.90;;;;;;5044661;28;20447;-80
2021/05/24 00:46:20;;;;;;;7.70;7.00;;;10.90;99.90;;;;;;5044198;28;20462;-79
2021/05/24 00:48:46;;;;;;;6.50;6.00;;;10.90;99.90;;;;;;5045143;28;20450;-80
2021/05/24 00:51:12;;;;;;;6.83;6.13;;;10.50;99.90;;;;;;5041595;28;20447;-81
2021/05/24 00:53:39;;;;;;;6.60;6.00;;;11.00;99.90;;;;;;5040799;28;20450;-81
2021/05/24 00:56:05;;;;;;;6.93;5.50;;;10.70;99.90;;;;;;5039681;28;20478;-81
2021/05/24 00:58:32;;;;;;;5.57;5.10;;;10.80;99.90;;;;;;5043075;28;20504;-80
2021/05/24 01:00:58;;;;;;;6.70;6.10;;;10.10;99.90;;;;;;5038931;28;20802;-82
2021/05/24 01:03:25;;;;;;;6.40;5.80;;;10.50;99.90;;;;;;5040407;28;20450;-80
2021/05/24 01:05:51;;;;;;;7.00;5.83;;;10.00;99.90;;;;;;5040643;28;20995;-81
2021/05/24 01:08:17;;;;;;;7.03;5.90;;;9.60;99.90;;;;;;5040774;28;20866;-82
2021/05/24 01:10:44;;;;;;;6.00;5.40;;;10.20;99.90;;;;;;5039971;28;20469;-81
2021/05/24 01:13:13;;;;;;;6.87;6.27;;;10.40;99.90;;;;;;5039139;28;20829;-81
2021/05/24 01:15:39;;;;;;;5.00;4.60;;;10.50;99.90;;;;;;5039825;28;20553;-80
2021/05/24 01:18:06;;;;;;;5.70;5.20;;;10.30;99.90;;;;;;5047927;28;20486;-80
2021/05/24 01:20:33;;;;;;;5.37;4.87;;;10.30;99.90;;;;;;5051579;28;20446;-79
2021/05/24 01:23:08;;;;;;;6.00;5.20;;;9.70;99.90;;;;;;5042552;28;20938;-81
2021/05/24 01:25:37;;;;;;;5.13;4.73;;;10.40;99.90;;;;;;5037847;28;20473;-82
2021/05/24 01:28:05;;;;;;;5.20;4.80;;;10.40;99.90;;;;;;5037660;28;20442;-81
2021/05/24 01:30:32;;;;;;;4.87;4.50;;;10.30;99.90;;;;;;5037784;28;20454;-81
2021/05/24 01:32:58;;;;;;;5.87;5.37;;;10.00;99.90;;;;;;5040172;28;20450;-82
2021/05/24 01:35:25;;;;;;;4.90;4.60;;;10.30;99.90;;;;;;5038017;28;20470;-83
2021/05/24 01:37:51;;;;;;;5.77;5.07;;;9.90;99.90;;;;;;5039032;28;20470;-80
2021/05/24 01:40:20;;;;;;;6.57;4.67;;;10.50;99.90;;;;;;5037388;28;20454;-79
2021/05/24 01:42:46;;;;;;;4.63;4.23;;;10.00;99.90;;;;;;5037286;28;20594;-80
2021/05/24 01:45:14;;;;;;;5.97;5.20;;;11.20;99.90;;;;;;5040882;28;20450;-79
2021/05/24 01:47:43;;;;;;;11.63;4.60;;;10.50;99.90;;;;;;5044199;28;20817;-79
2021/05/24 01:50:11;;;;;;;4.80;4.40;;;11.00;99.90;;;;;;5044431;28;20798;-79
2021/05/24 01:52:38;;;;;;;5.80;5.20;;;10.60;99.90;;;;;;5044192;28;20468;-79
2021/05/24 01:55:06;;;;;;;5.07;4.60;;;10.60;99.90;;;;;;5043883;28;20454;-79
2021/05/24 01:57:33;;;;;;;4.90;4.50;;;10.60;99.90;;;;;;5044625;28;20478;-79
2021/05/24 01:59:59;;;;;;;4.87;4.23;;;10.60;99.90;;;;;;5043623;28;20446;-79
2021/05/24 02:02:25;;;;;;;4.40;4.10;;;10.50;99.90;;;;;;5044562;28;20443;-80
2021/05/24 02:04:51;;;;;;;4.77;4.17;;;10.20;99.90;;;;;;5048947;28;20480;-80
2021/05/24 02:07:17;;;;;;;4.63;4.23;;;10.20;99.90;;;;;;5040514;28;20444;-80
2021/05/24 02:09:44;;;;;;;5.40;4.80;;;10.10;99.90;;;;;;5040466;28;20455;-80
2021/05/24 02:12:10;;;;;;;4.43;3.97;;;10.20;99.90;;;;;;5042117;28;20446;-81
2021/05/24 02:14:37;;;;;;;4.00;3.70;;;10.50;99.90;;;;;;5051236;28;20446;-79
2021/05/24 02:17:04;;;;;;;4.70;4.30;;;9.20;99.90;;;;;;5051602;28;20486;-80
2021/05/24 02:19:30;;;;;;;4.80;4.40;;;10.50;99.90;;;;;;5040165;28;20454;-79
2021/05/24 02:21:56;;;;;;;4.90;4.40;;;10.20;99.90;;;;;;5048685;28;20796;-79
2021/05/24 02:24:22;;;;;;;5.43;4.90;;;10.40;99.90;;;;;;5048619;28;20446;-78
2021/05/24 02:26:48;;;;;;;4.10;3.63;;;10.70;99.90;;;;;;5047449;28;20440;-78
2021/05/24 02:29:14;;;;;;;4.87;4.47;;;10.20;99.90;;;;;;5037200;28;20435;-82
2021/05/24 02:31:41;;;;;;;4.83;4.43;;;10.30;99.90;;;;;;5036269;28;20450;-81
2021/05/24 02:34:08;;;;;;;4.63;4.23;;;10.40;99.90;;;;;;5041933;28;20450;-79
2021/05/24 02:36:35;;;;;;;5.53;4.90;;;10.50;99.90;;;;;;5043229;28;20486;-81
2021/05/24 02:39:04;;;;;;;4.50;4.10;;;10.40;99.90;;;;;;5042476;28;20477;-79
2021/05/24 02:41:30;;;;;;;4.97;4.57;;;10.30;99.90;;;;;;5041578;28;20450;-80
2021/05/24 02:43:56;;;;;;;4.43;4.13;;;10.00;99.90;;;;;;5042628;28;20425;-80
2021/05/24 02:46:22;;;;;;;4.87;4.07;;;9.60;99.90;;;;;;5038307;28;20474;-81
2021/05/24 02:48:49;;;;;;;4.50;4.10;;;10.00;99.90;;;;;;5037136;28;20473;-81
2021/05/24 02:51:15;;;;;;;4.97;4.30;;;10.00;99.90;;;;;;5036809;28;20474;-81
2021/05/24 02:53:41;;;;;;;6.40;5.90;;;10.20;99.90;;;;;;5038239;28;20488;-82
2021/05/24 02:56:07;;;;;;;5.07;4.57;;;10.20;99.90;;;;;;5036564;28;20830;-80
2021/05/24 02:58:33;;;;;;;4.90;4.50;;;10.10;99.90;;;;;;5052350;28;20427;-81
2021/05/24 03:00:59;;;;;;;4.67;4.37;;;9.70;99.90;;;;;;5052023;28;20446;-80
2021/05/24 03:03:27;;;;;;;5.23;4.80;;;10.00;99.90;;;;;;5051599;28;20457;-80
2021/05/24 03:05:54;;;;;;;4.23;3.70;;;10.00;99.90;;;;;;5044743;28;20553;-80
2021/05/24 03:08:20;;;;;;;5.90;5.40;;;10.20;99.90;;;;;;5042247;28;20424;-80
2021/05/24 03:10:47;;;;;;;5.43;4.90;;;;;;;;;;5037710;28;20459;-80
2021/05/24 03:13:13;;;;;;;5.30;4.77;;;10.10;99.90;;;;;;5036388;28;20450;-80
2021/05/24 03:15:40;;;;;;;6.70;5.10;;;10.20;99.90;;;;;;5035670;28;20494;-82
2021/05/24 03:18:06;;;;;;;4.50;4.10;;;10.10;99.90;;;;;;5035427;28;20557;-82
2021/05/24 03:20:32;;;;;;;5.20;4.80;;;9.90;99.90;;;;;;5034930;28;20976;-80
2021/05/24 03:22:59;;;;;;;6.30;5.10;;;9.70;99.90;;;;;;5035161;28;20447;-79
2021/05/24 03:25:25;;;;;;;5.40;4.90;;;9.70;99.90;;;;;;5034919;28;21012;-81
2021/05/24 03:27:51;;;;;;;6.60;5.33;;;9.90;99.90;;;;;;5035189;28;20500;-81
2021/05/24 03:30:18;;;;;;;4.10;3.80;;;9.60;99.90;;;;;;5036116;28;20457;-81
2021/05/24 03:32:44;;;;;;;6.93;6.30;;;10.30;99.90;;;;;;5039501;28;20450;-80
2021/05/24 03:35:11;;;;;;;4.97;4.57;;;9.90;99.90;;;;;;5040900;28;20462;-80
2021/05/24 03:37:38;;;;;;;4.13;3.83;;;9.90;99.90;;;;;;5060296;22;20525;-76
2021/05/24 03:40:07;;;;;;;5.23;4.50;;;9.60;99.90;;;;;;5037076;28;20469;-76
2021/05/24 03:42:34;;;;;;;4.10;3.80;;;;;;;;;;5037064;28;20446;-75
2021/05/24 03:45:02;;;;;;;4.83;4.47;;;9.90;99.90;;;;;;5037162;28;20454;-76
2021/05/24 03:47:28;;;;;;;4.90;4.40;;;9.70;99.90;;;;;;5036887;28;20462;-75
2021/05/24 03:49:54;;;;;;;5.87;5.40;;;10.00;99.90;;;;;;5036960;28;20428;-75
2021/05/24 03:52:20;;;;;;;4.60;4.20;;;9.40;99.90;;;;;;5036625;28;20520;-75
2021/05/24 03:54:46;;;;;;;4.93;4.43;;;9.90;99.90;;;;;;5037284;28;20881;-74
2021/05/24 03:57:13;;;;;;;5.10;4.70;;;9.70;99.90;;;;;;5037274;28;20520;-75
2021/05/24 03:59:40;;;;;;;5.20;4.63;;;9.60;99.90;;;;;;5036806;28;20652;-76
2021/05/24 04:02:06;;;;;;;6.37;4.13;;;10.00;99.90;;;;;;5036726;28;20451;-76
2021/05/24 04:04:33;;;;;;;5.37;4.97;;;9.70;99.90;;;;;;5036624;28;20892;-76
2021/05/24 04:07:02;;;;;;;5.50;4.67;;;10.10;99.90;;;;;;5036997;28;20474;-76
2021/05/24 04:09:29;;;;;;;5.20;4.80;;;9.60;99.90;;;;;;5037248;28;20450;-76
2021/05/24 04:11:55;;;;;;;4.67;4.27;;;10.00;99.90;;;;;;5037566;28;20474;-75
2021/05/24 04:14:21;;;;;;;5.30;4.27;;;9.60;99.90;;;;;;5036442;28;20446;-75
2021/05/24 04:16:48;;;;;;;4.67;4.37;;;9.70;99.90;;;;;;5036231;28;20513;-76
2021/05/24 04:19:14;;;;;;;4.50;4.10;;;9.70;99.90;;;;;;5036552;28;20499;-75
2021/05/24 04:21:42;;;;;;;5.40;4.87;;;9.70;99.90;;;;;;5036651;28;20450;-75
2021/05/24 04:24:10;;;;;;;4.10;3.80;;;9.80;99.90;;;;;;5036585;28;20450;-75
2021/05/24 04:26:36;;;;;;;5.70;5.10;;;10.10;99.90;;;;;;5036326;28;20457;-75
2021/05/24 04:29:03;;;;;;;4.67;4.37;;;9.90;99.90;;;;;;5036252;28;20450;-75
2021/05/24 04:31:30;;;;;;;6.87;4.10;;;10.20;99.90;;;;;;5036087;28;20450;-76
2021/05/24 04:33:57;;;;;;;4.03;3.63;;;10.10;99.90;;;;;;5036100;28;20486;-75
2021/05/24 04:36:24;;;;;;;4.33;3.90;;;10.20;99.90;;;;;;5035699;28;20473;-76
2021/05/24 04:38:50;;;;;;;4.50;3.90;;;10.40;99.90;;;;;;5036103;28;20474;-75
2021/05/24 04:41:16;;;;;;;4.13;3.73;;;10.00;99.90;;;;;;5035881;28;20454;-76
2021/05/24 04:43:42;;;;;;;4.57;3.93;;;10.60;99.90;;;;;;5035978;28;20867;-76
2021/05/24 04:46:09;;;;;;;4.63;3.97;;;10.10;99.90;;;;;;5035720;28;20466;-75
2021/05/24 04:48:36;;;;;;;3.80;3.50;;;11.00;99.90;;;;;;5035159;28;20425;-75
2021/05/24 04:51:03;;;;;;;4.30;3.90;;;10.40;99.90;;;;;;5036008;28;20811;-75
2021/05/24 04:53:30;;;;;;;4.53;3.47;;;;;;;;;;5035862;28;20824;-76
2021/05/24 04:55:56;;;;;;;3.80;3.60;;;10.90;99.90;;;;;;5035735;28;20470;-75
2021/05/24 04:58:22;;;;;;;3.87;3.57;;;10.20;99.90;;;;;;5035510;28;20514;-75
2021/05/24 05:00:48;;;;;;;4.13;3.63;;;11.10;99.90;;;;;;5035234;28;20958;-75
2021/05/24 05:03:14;;;;;;;4.30;3.90;;;10.90;99.90;;;;;;5035590;28;20474;-76
2021/05/24 05:05:42;;;;;;;4.87;4.47;;;11.30;99.90;;;;;;5035500;28;20470;-75
2021/05/24 05:08:08;;;;;;;3.83;3.53;;;11.00;99.90;;;;;;5035269;28;20949;-75
2021/05/24 05:10:35;;;;;;;3.60;3.30;;;;;;;;;;5035459;28;20482;-76
2021/05/24 05:13:01;;;;;;;7.97;4.10;;;11.30;99.90;;;;;;5035552;28;20454;-76
2021/05/24 05:15:28;;;;;;;3.77;3.57;;;;;;;;;;5035220;28;20454;-76
2021/05/24 05:17:54;;;;;;;3.90;3.70;;;11.30;99.90;;;;;;5035151;28;20478;-75
2021/05/24 05:20:20;;;;;;;3.70;3.40;;;11.00;99.90;;;;;;5035217;28;20524;-76
2021/05/24 05:22:47;;;;;;;3.40;3.10;;;11.50;99.90;;;;;;5035206;28;20446;-75
2021/05/24 05:25:13;;;;;;;11.00;3.57;;;11.20;99.90;;;;;;5035435;28;20446;-75
2021/05/24 05:27:39;;;;;;;3.70;3.40;;;11.90;99.90;;;;;;5035317;28;20526;-75
2021/05/24 05:30:07;;;;;;;3.50;3.30;;;11.80;99.90;;;;;;5035429;28;20446;-75
2021/05/24 05:32:34;;;;;;;3.57;3.23;;;11.90;99.90;;;;;;5036432;28;20442;-75
2021/05/24 05:35:00;;;;;;;3.10;2.90;;;12.00;99.90;;;;;;5036214;28;20458;-75
2021/05/24 05:37:26;;;;;;;5.60;3.07;;;12.20;99.90;;;;;;5035004;28;20529;-75
2021/05/24 05:39:55;;;;;;;3.23;3.03;;;11.50;99.90;;;;;;5035291;28;20864;-75
2021/05/24 05:42:22;;;;;;;3.67;3.10;;;11.70;99.90;;;;;;5035225;28;20500;-75
2021/05/24 05:44:48;;;;;;;2.87;2.77;;;11.50;99.90;;;;;;5034851;28;20873;-76
2021/05/24 05:47:14;;;;;;;3.00;2.80;;;11.70;99.90;;;;;;5034871;28;20467;-76
2021/05/24 05:49:40;;;;;;;4.93;3.13;;;11.70;99.90;;;;;;5034950;28;20482;-76
2021/05/24 05:52:07;;;;;;;4.17;3.60;;;12.00;99.90;;;;;;5034751;28;20457;-76
2021/05/24 05:54:33;;;;;;;3.93;3.57;;;12.20;99.90;;;;;;5034671;28;20446;-75
2021/05/24 05:57:00;;;;;;;3.23;2.93;;;11.70;99.90;;;;;;5034388;28;20482;-75
2021/05/24 05:59:26;;;;;;;3.20;3.00;;;12.10;99.90;;;;;;5033692;28;20493;-75
2021/05/24 06:01:52;;;;;;;3.20;2.90;;;12.20;99.90;;;;;;5034545;28;20532;-75
2021/05/24 06:04:18;;;;;;;3.30;2.60;;;12.10;99.90;;;;;;5034358;28;20450;-76
2021/05/24 06:06:44;;;;;;;3.53;3.03;;;12.30;99.90;;;;;;5034829;28;20466;-75
2021/05/24 06:09:11;;;;;;;3.00;2.10;;;12.20;99.90;;;;;;5034266;28;20577;-75
2021/05/24 06:11:37;;;;;;;2.73;2.27;;;12.30;99.90;;;;;;5034302;28;20446;-75
2021/05/24 06:14:04;;;;;;;2.50;2.30;;;12.50;99.90;;;;;;5034752;28;20526;-75
2021/05/24 06:16:30;;;;;;;3.17;2.87;;;13.10;99.90;;;;;;5033976;28;20508;-76
2021/05/24 06:18:56;;;;;;;3.78;2.58;;;13.10;99.90;;;;;;5033203;28;20488;-75
2021/05/24 06:21:22;;;;;;;4.30;3.90;;;13.10;99.90;;;;;;5034182;28;20207;-75
2021/05/24 06:23:48;;;;;;;3.60;2.53;;;13.10;99.90;;;;;;5034412;28;20458;-76
2021/05/24 06:26:14;;;;;;;2.97;2.53;;;13.10;99.90;;;;;;5034167;28;20466;-76
2021/05/24 06:28:41;;;;;;;4.60;2.73;;;13.20;99.90;;;;;;5034535;28;20855;-75
2021/05/24 06:31:07;;;;;;;3.73;2.63;;;13.40;99.90;;;;;;5034059;28;20508;-76
2021/05/24 06:33:34;;;;;;;2.70;2.30;;;13.30;99.90;;;;;;5033910;28;20450;-76
2021/05/24 06:36:00;;;;;;;2.80;2.47;;;13.40;99.90;;;;;;5033840;28;20486;-76
2021/05/24 06:38:26;;;;;;;2.83;2.63;;;13.40;99.90;;;;;;5033756;28;20989;-75
2021/05/24 06:40:52;;;;;;;3.00;2.80;;;13.50;99.90;;;;;;5033900;28;20446;-76
2021/05/24 06:43:20;;;;;;;3.80;3.17;;;13.70;99.90;;;;;;5033910;28;20435;-77
2021/05/24 06:45:46;;;;;;;2.57;2.47;;;13.40;99.90;;;;;;5033677;28;21040;-77
2021/05/24 06:48:13;;;;;;;4.40;2.90;;;13.70;99.90;;;;;;5034683;28;20847;-77
2021/05/24 06:50:39;;;;;;;2.60;2.40;;;13.70;99.90;;;;;;5032741;28;20891;-76
2021/05/24 06:53:05;;;;;;;3.00;2.70;;;13.80;99.90;;;;;;5033898;28;20236;-76
2021/05/24 06:55:31;;;;;;;3.00;2.67;;;14.10;99.90;;;;;;5033828;28;20458;-76
2021/05/24 06:57:57;;;;;;;2.90;2.70;;;14.00;99.90;;;;;;5033605;28;20482;-76
2021/05/24 07:00:23;;;;;;;14.32;8.75;;;14.10;99.90;;;;;;5033370;28;20868;-76
2021/05/24 07:02:50;;;;;;;3.30;2.50;;;14.10;99.90;;;;;;5033655;28;20698;-75
2021/05/24 07:05:17;;;;;;;3.00;2.80;;;14.20;99.90;;;;;;5033775;28;20492;-76
2021/05/24 07:07:43;;;;;;;2.80;2.60;;;14.30;99.90;;;;;;5032982;28;20463;-76
2021/05/24 07:10:12;;;;;;;8.40;3.80;;;14.50;99.90;;;;;;5032716;28;20969;-76
2021/05/24 07:12:39;;;;;;;3.90;3.40;;;14.60;99.90;;;;;;5033255;28;20880;-76
2021/05/24 07:15:06;;;;;;;4.07;3.63;;;14.70;99.90;;;;;;5033193;28;20489;-75
2021/05/24 07:17:32;;;;;;;2.63;2.43;;;14.80;99.90;;;;;;5033034;28;20963;-77
2021/05/24 07:19:58;;;;;;;2.30;2.10;;;14.70;99.90;;;;;;5033178;28;20790;-76
2021/05/24 07:22:25;;;;;;;3.03;2.73;;;14.90;99.90;;;;;;5033234;28;20473;-76
2021/05/24 07:24:53;;;;;;;2.97;2.20;;;14.90;99.90;;;;;;5033166;28;20517;-76
2021/05/24 07:27:19;;;;;;;2.73;2.53;;;;;;;;;;5032985;28;20488;-76
2021/05/24 07:29:45;;;;;;;2.30;2.20;;;15.00;99.90;;;;;;5033157;28;20458;-75
2021/05/24 07:32:11;;;;;;;2.50;1.77;;;15.20;99.90;;;;;;5032793;28;20520;-75
2021/05/24 07:34:38;;;;;;;2.57;2.37;;;15.20;99.90;;;;;;5033009;28;20450;-75
2021/05/24 07:37:04;;;;;;;2.00;1.90;;;15.30;99.90;;;;;;5032570;28;20493;-76
2021/05/24 07:39:31;;;;;;;3.67;1.70;;;15.40;99.90;;;;;;5032881;28;20446;-75
2021/05/24 07:42:00;;;;;;;3.73;1.40;;;15.50;99.90;;;;;;5032899;28;20451;-76
2021/05/24 07:44:27;;;;;;;3.77;2.23;;;15.40;99.90;;;;;;5032812;28;20454;-75
2021/05/24 07:46:53;;;;;;;2.10;1.80;;;15.70;99.90;;;;;;5032709;28;20466;-76
2021/05/24 07:49:20;;;;;;;2.10;1.77;;;15.70;99.90;;;;;;5032810;28;20870;-76
2021/05/24 07:51:46;;;;;;;1.80;1.67;;;15.80;99.90;;;;;;5032992;28;20500;-77
2021/05/24 07:54:13;;;;;;;1.60;1.50;;;15.80;99.90;;;;;;5032466;28;20972;-77
2021/05/24 07:56:39;;;;;;;2.47;1.83;;;15.30;99.90;;;;;;5032595;28;20466;-76
2021/05/24 07:59:06;;;;;;;2.70;1.77;;;15.90;99.90;;;;;;5032867;28;20461;-76
2021/05/24 08:01:32;;;;;;;1.70;1.60;;;16.10;99.90;;;;;;5032828;28;20566;-77
2021/05/24 08:03:58;;;;;;;1.70;1.60;;;16.10;99.90;;;;;;5033647;28;20788;-76
2021/05/24 08:06:24;;;;;;;6.63;2.13;;;16.20;99.90;;;;;;5032698;28;20466;-76
2021/05/24 08:08:51;;;;;;;1.97;1.87;;;16.30;99.90;;;;;;5032699;28;20521;-77
2021/05/24 08:11:17;;;;;;;2.50;2.30;;;16.20;99.90;;;;;;5032789;28;20553;-76
2021/05/24 08:13:44;;;;;;;2.17;2.00;;;16.40;99.90;;;;;;5032767;28;20492;-76
2021/05/24 08:16:12;;;;;;;1.90;1.53;;;16.50;99.90;;;;;;5032911;28;20470;-76
2021/05/24 08:18:39;;;;;;;2.73;1.73;;;16.50;99.90;;;;;;5032683;28;20797;-76
2021/05/24 08:21:05;;;;;;;1.70;1.60;;;16.60;99.90;;;;;;5032557;28;20455;-76
2021/05/24 08:23:31;;;;;;;2.17;1.77;;;16.70;99.90;;;;;;5036146;28;20442;-77
2021/05/24 08:25:57;;;;;;;1.60;1.50;;;16.70;99.90;;;;;;5036344;28;20501;-76
2021/05/24 08:28:23;;;;;;;1.27;1.17;;;16.80;99.90;;;;;;5036319;28;20789;-76
2021/05/24 08:30:50;;;;;;;1.90;1.80;;;16.70;99.90;;;;;;5036094;28;20500;-76
2021/05/24 08:33:17;;;;;;;2.87;1.43;;;16.90;99.90;;;;;;5036148;28;20442;-76
2021/05/24 08:35:45;;;;;;;1.70;1.33;;;16.90;99.90;;;;;;5035877;28;20529;-76
2021/05/24 08:38:11;;;;;;;1.30;1.20;;;17.10;99.90;;;;;;5036799;28;20884;-76
2021/05/24 08:40:37;;;;;;;2.87;2.27;;;16.90;99.90;;;;;;5036110;28;20489;-76
2021/05/24 08:43:04;;;;;;;2.57;1.37;;;16.90;99.90;;;;;;5035976;28;20446;-76
2021/05/24 08:45:31;;;;;;;1.30;1.20;;;17.00;99.90;;;;;;5035963;28;20446;-75
2021/05/24 08:47:58;;;;;;;1.93;1.23;;;16.80;99.90;;;;;;5035928;28;20446;-76
2021/05/24 08:50:24;;;;;;;2.23;1.43;;;16.70;99.90;;;;;;5035959;28;20489;-77
2021/05/24 08:52:50;;;;;;;2.17;1.97;;;17.10;99.90;;;;;;5035362;28;20463;-76
2021/05/24 08:55:16;;;;;;;2.40;1.50;;;17.30;99.90;;;;;;5035702;28;20454;-76
2021/05/24 08:57:43;;;;;;;1.20;1.10;;;17.40;99.90;;;;;;5035804;28;20573;-77
2021/05/24 09:00:13;;;;;;;1.40;1.27;;;17.70;99.90;;;;;;5035810;28;20542;-76
2021/05/24 09:02:39;;;;;;;3.43;1.30;;;17.80;99.90;;;;;;5036221;28;20939;-76
2021/05/24 09:05:09;;;;;;;1.20;1.10;;;17.90;99.90;;;;;;5035456;28;20461;-76
2021/05/24 09:07:48;;;;;;;2.33;1.20;;;18.10;99.90;;;;;;5035456;28;20466;-76
2021/05/24 09:10:15;;;;;;;2.10;1.20;;;18.10;99.90;;;;;;5035889;28;20438;-76
2021/05/24 09:12:45;;;;;;;4.20;1.20;;;;;;;;;;5035528;28;20453;-76
2021/05/24 09:15:15;;;;;;;2.60;1.80;;;;;;;;;;5036815;28;20466;-76
2021/05/24 09:17:44;;;;;;;2.90;1.20;;;;;;;;;;5036152;28;20841;-75
2021/05/24 09:20:27;;;;;;;1.20;1.10;;;;;;;;;;5035926;28;20450;-76
2021/05/24 09:23:18;;;;;;;3.10;2.23;;;18.00;99.90;;;;;;5037515;28;20427;-76
2021/05/24 09:25:59;;;;;;;1.87;1.30;;;18.00;99.90;;;;;;5036596;28;20993;-76
2021/05/24 09:28:37;;;;;;;1.57;1.13;;;18.10;99.90;;;;;;5036471;28;20435;-76
2021/05/24 09:31:07;;;;;;;2.63;1.30;;;18.10;99.90;;;;;;5035245;28;20431;-76
2021/05/24 09:33:33;;;;;;;1.37;1.00;;;18.00;99.90;;;;;;5035094;28;20439;-76
2021/05/24 09:36:01;;;;;;;2.47;1.23;;;18.20;99.90;;;;;;5059967;22;20514;-79
2021/05/24 09:38:34;;;;;;;1.30;1.20;;;17.70;99.90;;;;;;5031822;28;21017;-80
2021/05/24 09:41:02;;;;;;;1.20;1.10;;;19.00;99.90;;;;;;5031833;28;20797;-80
2021/05/24 09:43:35;;;;;;;5.70;1.70;;;18.40;99.90;;;;;;5030463;28;20445;-79
2021/05/24 09:46:10;;;;;;;1.53;1.40;;;18.00;99.90;;;;;;5030587;28;20432;-80
2021/05/24 09:48:36;;;;;;;3.67;1.53;;;18.20;99.90;;;;;;5021647;28;20519;-81
2021/05/24 09:51:06;;;;;;;2.07;1.27;;;18.00;99.90;;;;;;5020556;28;20452;-81
2021/05/24 09:53:32;;;;;;;2.13;1.70;;;18.50;99.90;;;;;;5021263;28;20465;-81
2021/05/24 09:56:06;;;;;;;1.30;1.20;;;18.20;99.90;;;;;;5020571;28;20473;-80
2021/05/24 09:58:33;;;;;;;1.20;1.10;;;18.30;99.90;;;;;;5019688;28;20534;-81
2021/05/24 10:01:13;;;;;;;5.03;1.87;;;17.80;99.90;;;;;;5019332;28;20465;-81
2021/05/24 10:03:40;;;;;;;4.10;1.70;;;18.40;99.90;;;;;;5021928;28;20442;-82
2021/05/24 10:06:07;;;;;;;1.90;1.70;;;18.70;99.90;;;;;;5023532;28;20885;-80
2021/05/24 10:08:33;;;;;;;3.60;1.27;;;18.60;99.90;;;;;;5024616;28;20453;-81
2021/05/24 10:11:00;;;;;;;1.60;1.50;;;18.50;99.90;;;;;;5018939;28;20454;-80
2021/05/24 10:13:28;;;;;;;2.10;1.10;;;18.90;99.90;;;;;;5020168;28;20449;-82
2021/05/24 10:15:59;;;;;;;2.50;1.33;;;18.90;99.90;;;;;;5022604;28;20461;-82
2021/05/24 10:18:25;;;;;;;1.10;1.00;;;19.00;99.90;;;;;;5020228;28;20475;-82
2021/05/24 10:20:52;;;;;;;1.23;1.10;;;18.90;99.90;;;;;;5020650;28;20442;-80
2021/05/24 10:23:21;;;;;;;2.50;1.10;;;18.70;99.90;;;;;;5021969;28;20485;-82
2021/05/24 10:25:48;;;;;;;1.50;1.30;;;18.80;99.90;;;;;;5020290;28;20461;-81
2021/05/24 10:28:14;;;;;;;1.90;1.23;;;19.00;99.90;;;;;;5018170;28;20952;-83
2021/05/24 10:30:42;;;;;;;2.60;1.90;;;18.90;99.90;;;;;;5018626;28;20540;-82
2021/05/24 10:33:13;;;;;;;1.70;1.60;;;18.80;99.90;;;;;;5021201;28;20459;-82
2021/05/24 10:35:40;;;;;;;1.40;1.23;;;18.80;99.90;;;;;;5020148;28;20441;-80
2021/05/24 10:38:27;;;;;;;2.07;1.30;;;18.80;99.90;;;;;;5020827;28;20489;-82
2021/05/24 10:41:03;;;;;;;1.40;0.80;;;18.90;99.90;;;;;;5023946;28;20437;-82
2021/05/24 10:43:39;;;;;;;1.30;1.00;;;19.00;99.90;;;;;;5020098;28;20940;-82
2021/05/24 10:46:35;;;;;;;1.20;1.10;;;19.10;99.90;;;;;;5025400;28;20945;-82
2021/05/24 10:49:04;;;;;;;2.00;1.10;;;19.00;99.90;;;;;;5020662;28;20440;-81
2021/05/24 10:52:08;;;;;;;1.53;0.90;;;18.90;99.90;;;;;;5020392;28;20446;-82
2021/05/24 10:54:42;;;;;;;1.53;1.33;;;19.00;99.90;;;;;;5017300;28;20425;-82
2021/05/24 10:57:19;;;;;;;1.77;1.50;;;18.90;99.90;;;;;;5019083;28;20470;-81
2021/05/24 10:59:57;;;;;;;1.53;1.43;;;18.80;99.90;;;;;;5020554;28;20441;-81
2021/05/24 11:02:51;;;;;;;2.37;1.80;;;18.90;99.90;;;;;;5022556;28;20959;-81
2021/05/24 11:05:25;;;;;;;1.00;0.90;;;19.00;99.90;;;;;;5023558;28;20430;-80
2021/05/24 11:07:54;;;;;;;1.80;1.00;;;19.20;99.90;;;;;;5023383;28;20558;-80
2021/05/24 11:10:33;;;;;;;2.37;1.10;;;19.10;99.90;;;;;;5021662;28;20451;-80
2021/05/24 11:13:29;;;;;;;1.00;0.90;;;19.10;99.90;;;;;;5020641;28;20433;-81
2021/05/24 11:16:10;;;;;;;1.67;1.10;;;19.20;99.90;;;;;;5020003;28;20913;-82
2021/05/24 11:18:41;;;;;;;2.40;0.90;;;19.20;99.90;;;;;;5020478;28;20475;-82
2021/05/24 11:21:20;;;;;;;1.53;1.40;;;19.20;99.90;;;;;;5020295;28;20447;-81
2021/05/24 11:26:37;;;;;;;2.93;1.90;;;18.90;99.90;;;;;;5025959;28;20532;-80
2021/05/24 11:29:09;;;;;;;1.80;1.70;;;19.20;99.90;;;;;;5028837;28;20509;-81
2021/05/24 11:31:52;;;;;;;1.63;1.53;;;19.40;99.90;;;;;;5030661;28;20427;-81
2021/05/24 11:34:27;;;;;;;1.83;1.10;;;;;;;;;;5033260;28;20493;-82
2021/05/24 11:36:56;;;;;;;3.47;2.63;;;19.60;99.90;;;;;;5029558;28;20481;-82
2021/05/24 11:39:30;;;;;;;1.73;1.63;;;19.80;99.90;;;;;;5030230;28;20471;-80
2021/05/24 11:41:59;;;;;;;2.40;1.57;;;19.60;99.90;;;;;;5029748;28;20427;-81
2021/05/24 11:44:29;;;;;;;3.60;2.40;;;19.80;99.90;;;;;;5027663;28;20448;-80
2021/05/24 11:46:56;;;;;;;1.47;1.37;;;19.00;99.90;;;;;;5025727;28;20489;-81
2021/05/24 11:49:33;;;;;;;1.50;1.40;;;19.70;99.90;;;;;;5022570;28;20453;-80
2021/05/24 11:51:59;;;;;;;3.10;2.43;;;19.40;99.90;;;;;;5019020;28;20538;-81
2021/05/24 11:54:26;;;;;;;4.70;2.50;;;18.80;99.90;;;;;;5018092;28;20443;-82
2021/05/24 11:56:54;;;;;;;2.33;1.87;;;19.70;99.90;;;;;;5018723;28;20475;-82
2021/05/24 11:59:23;;;;;;;1.60;1.50;;;19.50;99.90;;;;;;5021399;28;20487;-81
2021/05/24 12:01:51;;;;;;;3.57;1.80;;;20.00;99.90;;;;;;5022365;28;20482;-82
2021/05/24 12:04:20;;;;;;;2.27;1.40;;;19.80;99.90;;;;;;5021081;28;20446;-81
2021/05/24 12:06:49;;;;;;;4.53;1.83;;;19.70;99.90;;;;;;5028475;28;20883;-81
2021/05/24 12:09:33;;;;;;;1.53;1.43;;;19.40;99.90;;;;;;5024762;28;20450;-82
2021/05/24 12:12:00;;;;;;;1.53;1.43;;;19.60;99.90;;;;;;5028065;28;20434;-82
2021/05/24 12:14:27;;;;;;;3.03;2.60;;;19.90;99.90;;;;;;5022729;28;20450;-81
2021/05/24 12:16:54;;;;;;;1.70;1.60;;;19.60;99.90;;;;;;5020992;28;20482;-82
2021/05/24 12:19:22;;;;;;;2.67;2.47;;;19.50;99.90;;;;;;5023264;28;20492;-82
2021/05/24 12:21:48;;;;;;;4.40;4.07;;;20.00;99.90;;;;;;5022614;28;20453;-82
2021/05/24 12:24:15;;;;;;;8.77;5.47;;;19.10;99.90;;;;;;5022169;28;20454;-81
2021/05/24 12:26:48;;;;;;;3.90;1.37;;;19.60;99.90;;;;;;5020792;28;20471;-79
2021/05/24 12:29:21;;;;;;;1.20;1.10;;;20.10;99.90;;;;;;5024966;28;20914;-81
2021/05/24 12:31:49;;;;;;;4.50;2.10;;;19.90;99.90;;;;;;5025497;28;20790;-82
2021/05/24 12:34:17;;;;;;;4.83;1.43;;;20.40;99.90;;;;;;5024880;28;20481;-80
2021/05/24 12:36:49;;;;;;;2.50;1.90;;;20.00;99.90;;;;;;5026432;28;20497;-83
2021/05/24 12:39:18;;;;;;;6.53;1.40;;;20.00;99.90;;;;;;5020662;28;20562;-81
2021/05/24 12:41:45;;;;;;;2.43;1.10;;;20.10;99.90;;;;;;5021781;28;20472;-82
2021/05/24 12:44:12;;;;;;;1.93;1.60;;;20.30;99.90;;;;;;5022892;28;20525;-82
2021/05/24 12:46:42;;;;;;;2.67;1.53;;;20.30;99.90;;;;;;5020449;28;20475;-81
2021/05/24 12:49:09;;;;;;;2.00;1.60;;;20.30;99.90;;;;;;5021461;28;20498;-81
2021/05/24 12:51:36;;;;;;;2.27;1.33;;;20.40;99.90;;;;;;5020941;28;20497;-82
2021/05/24 12:54:04;;;;;;;2.57;1.70;;;20.10;99.90;;;;;;5021815;28;20479;-81
2021/05/24 12:56:36;;;;;;;1.53;1.30;;;20.30;99.90;;;;;;5021831;28;20474;-80
2021/05/24 12:59:11;;;;;;;1.53;1.43;;;20.30;99.90;;;;;;5023437;28;20503;-80